Tulelake, CA

11:27 AM PDT on August 23, 2014 (GMT -0700)
RAWS INDIAN WELL CA US | Change Station
CLOSE
Current Station
Personal Weather Station
Location: Tulelake, CA
Elevation: 4776 ft
Nearby Weather Stations

Elev 4776 ft 41.71 °N, 121.51 °W | Updated 26 minutes ago

Clear
Clear
68 °F
Feels Like 68 °F
N
3
Wind Variable Wind from NNE
Gusts 10.0 mph

Today
High -- | Low -- °F
--% Chance of Precip.
Yesterday
High -- | Low -- °F
Precip. -- in
6:22 AM 7:53 PM
Waning Crescent, 3% visible
Pressure 30.06 in
Visibility 10.0 miles
Clouds Clear
Dew Point 35 °F
Humidity 30%
Rainfall 0.00 in
Snow Depth Not available.
UV 7 out of 12
Pollen 5.30 out of 12
Air Quality Not available.
Flu Activity Not available.
METAR KLMT 231753Z 08006KT 10SM CLR 19/04 A3016 RMK AO2 SLP177 60000 T01940039 10200 20056 58005

More Conditions Fewer Conditions

Pressure 30.06 in
Visibility 10.0 miles
Clouds Clear
Dew Point 35 °F
Humidity 30%
Rainfall 0.00 in
Snow Depth Not available.
UV 7 out of 12
Pollen 5.30 out of 12
Air Quality Not available.
Flu Activity Not available.
METAR KLMT 231753Z 08006KT 10SM CLR 19/04 A3016 RMK AO2 SLP177 60000 T01940039 10200 20056 58005

More Conditions Fewer Conditions

10-Day Weather Forecast

Almanac

Astronomy

Aug. 23, 2014 Rise Set
Actual Time 6:22 AM PDT 7:53 PM PDT
Civil Twilight 5:53 AM PDT 8:22 PM PDT
Nautical Twilight 5:17 AM PDT 8:58 PM PDT
Astronomical Twilight 4:40 AM PDT 9:35 PM PDT
Moon 4:42 AM PDT 6:41 PM PDT
Length of Visible Light 14h 29m
Length of Day
13h 31m
Tomorrow will be 2m 36s shorter.
Waning Crescent, 3% of the Moon is Illuminated
Today
Waning Crescent
Aug 25
New
Sep 2
First Quarter
Sep 8
Full
Sep 15
Last Quarter

Today's Extremes

State Highs State Lows

Community

WunderPhotos

Upload Photos

1,746,554 photos uploaded!

WunderBlogs® & News

By Dr. Jeff Masters
Director of Meteorology, Weather Underground
By Kari Strenfel
Meteorologist, Weather Underground
By Christopher C. Burt
Weather Historian, Weather Underground
August 23, 2014
August 23, 2014
August 23, 2014

Nearby

Snow Depth

Station Depth Elevation
Adin Mountain 0 in 6200 ft
Blue Lakes 0 in 8000 ft
Summit Meadow 0 in 9122 ft
Leavitt Meadows 0 in 7200 ft
Leavitt Lake 0 in 9400 ft

Earthquake Activity

City Distance Mag. Time & Date
Lakeview, Oregon 95 miles 3.3 5:36 PM PDT
2014-08-18
Lakeview, Oregon 94 miles 2.6 5:24 PM PDT
2014-08-18
Lakeview, Oregon 94 miles 2.7 4:39 PM PDT
2014-08-18
Minimum magnitude displayed is 2.5.

Coastal Water Temperatures

Place Temperature
No Stations Reporting

Nearby Weather Stations